Time;durP1;ratioP1;P1;durP2;ratioP2;P2;SDS_P1;SDS_P2;PMS_P1;PMS_P2;Temp;Humidity;BMP_temperature;BMP_pressure;BME280_temperature;BME280_humidity;BME280_pressure;Samples;Min_cycle;Max_cycle;Signal;HPM_P1;HPM_P2
2023/01/18 00:02:45;;;;;;;36.00;20.40;;;;;;;1.34;100.00;96367.64;269418;1272;22360;-88
2023/01/18 00:08:47;;;;;;;30.90;17.00;;;;;;;1.29;100.00;96368.61;270373;1272;25303;-88
2023/01/18 00:15:09;;;;;;;29.90;15.00;;;;;;;1.23;100.00;96370.97;271085;1272;23203;-87
2023/01/18 00:21:19;;;;;;;25.30;12.70;;;;;;;1.13;100.00;96367.45;270913;1272;22623;-87
2023/01/18 00:28:11;;;;;;;25.60;13.80;;;;;;;1.03;100.00;96362.23;271140;1272;22233;-86
2023/01/18 00:48:57;;;;;;;16.40;9.20;;;;;;;0.76;100.00;96353.36;269568;1271;22596;-86
2023/01/18 00:55:04;;;;;;;15.30;8.10;;;;;;;0.69;100.00;96359.63;269953;1273;22709;-87
2023/01/18 01:01:06;;;;;;;;;;;;;;;0.63;100.00;96350.12;270256;1272;22501;-88
2023/01/18 01:07:34;;;;;;;15.70;9.20;;;;;;;0.54;100.00;96326.05;273372;1279;22198;-88
2023/01/18 01:28:35;;;;;;;9.40;6.30;;;;;;;0.41;100.00;96317.27;273402;1279;22251;-87
2023/01/18 01:43:46;;;;;;;10.20;6.10;;;;;;;0.36;100.00;96299.23;271804;1288;22264;-88
2023/01/18 01:57:09;;;;;;;9.70;6.00;;;;;;;0.37;100.00;96306.92;269466;1273;23009;-87
2023/01/18 02:03:37;;;;;;;8.90;5.30;;;;;;;0.33;100.00;96288.52;269116;1272;22535;-88
2023/01/18 02:09:50;;;;;;;8.50;4.70;;;;;;;0.29;100.00;96264.59;269655;1272;22583;-88
2023/01/18 02:16:18;;;;;;;7.60;4.60;;;;;;;0.24;100.00;96234.48;269793;1272;22495;-85
2023/01/18 02:23:06;;;;;;;7.00;4.00;;;;;;;0.20;100.00;96216.48;270611;1272;22224;-89
2023/01/18 02:29:22;;;;;;;7.30;4.60;;;;;;;0.20;100.00;96224.79;272570;1276;22200;-88
2023/01/18 02:35:55;;;;;;;9.00;4.80;;;;;;;0.21;100.00;96227.31;272967;1280;22199;-89
2023/01/18 02:57:28;;;;;;;10.70;7.00;;;;;;;0.29;100.00;96239.67;270354;1272;22400;-89
2023/01/18 03:03:30;;;;;;;12.20;7.80;;;;;;;0.34;100.00;96259.85;268887;1273;22609;-90
2023/01/18 03:09:36;;;;;;;11.30;6.70;;;;;;;0.35;100.00;96282.77;270327;1273;25282;-89
2023/01/18 03:45:36;;;;;;;13.20;6.60;;;;;;;0.48;100.00;96241.65;272103;1268;22226;-89
2023/01/18 03:59:31;;;;;;;16.20;10.10;;;;;;;0.52;100.00;96212.06;269479;1272;25106;-88
2023/01/18 04:12:52;;;;;;;21.20;10.00;;;;;;;0.54;100.00;96198.85;269891;1280;22651;-88
2023/01/18 04:18:53;;;;;;;19.50;11.10;;;;;;;0.53;100.00;96189.55;267943;1278;24299;-88
2023/01/18 04:25:48;;;;;;;17.20;10.60;;;;;;;0.53;100.00;96178.08;268723;1279;25382;-88
2023/01/18 04:32:15;;;;;;;19.00;11.80;;;;;;;0.53;100.00;96171.08;273460;1258;22160;-89
2023/01/18 04:38:58;;;;;;;18.90;12.10;;;;;;;0.54;100.00;96164.93;272090;1272;24218;-89
2023/01/18 05:01:32;;;;;;;22.20;12.90;;;;;;;0.58;100.00;96187.79;273303;1278;22205;-90
2023/01/18 05:08:16;;;;;;;25.50;12.90;;;;;;;0.60;100.00;96194.95;270519;1272;22253;-90
2023/01/18 05:15:24;;;;;;;27.30;13.20;;;;;;;0.60;100.00;96211.11;271321;1276;23122;-89
2023/01/18 05:21:46;;;;;;;18.80;10.10;;;;;;;0.60;100.00;96217.58;272488;1273;22662;-88
2023/01/18 05:27:47;;;;;;;27.90;13.90;;;;;;;0.61;100.00;96193.73;270101;1272;177662;-88
2023/01/18 05:33:49;;;;;;;29.30;13.90;;;;;;;0.60;100.00;96198.41;270200;1273;22617;-88
2023/01/18 05:40:16;;;;;;;27.10;14.30;;;;;;;0.61;100.00;96215.88;268756;1273;22530;-88
2023/01/18 05:47:02;;;;;;;31.50;15.30;;;;;;;0.60;100.00;96220.95;270586;1272;22352;-88
2023/01/18 05:53:04;;;;;;;32.10;15.70;;;;;;;0.58;100.00;96201.10;270246;1273;22677;-89
2023/01/18 05:59:57;;;;;;;43.20;17.90;;;;;;;0.58;100.00;96197.79;272163;1274;22211;-88
2023/01/18 06:06:49;;;;;;;39.50;14.40;;;;;;;0.58;100.00;96186.02;273412;1273;22216;-89
2023/01/18 06:13:51;;;;;;;62.70;25.20;;;;;;;0.60;100.00;96197.88;270976;1272;22382;-89
2023/01/18 06:19:53;;;;;;;38.90;16.40;;;;;;;0.62;100.00;96190.27;271770;1272;22356;-89
2023/01/18 06:33:25;;;;;;;38.50;15.90;;;;;;;0.65;100.00;96205.21;270653;1272;22666;-88
2023/01/18 06:39:27;;;;;;;52.80;18.50;;;;;;;0.67;100.00;96217.07;270313;1271;22359;-89
2023/01/18 06:45:29;;;;;;;39.80;17.30;;;;;;;0.67;100.00;96224.23;271663;1272;23363;-88
2023/01/18 06:51:57;;;;;;;44.60;16.70;;;;;;;0.69;100.00;96206.69;269432;1272;22569;-88
2023/01/18 06:58:00;;;;;;;39.70;16.90;;;;;;;0.71;100.00;96213.99;269276;1272;22786;-88
2023/01/18 07:04:01;;;;;;;48.50;18.20;;;;;;;0.70;100.00;96253.46;270135;1272;25407;-88
2023/01/18 07:10:04;;;;;;;40.50;17.70;;;;;;;0.73;100.00;96265.79;268823;1272;22579;-88
2023/01/18 07:17:01;;;;;;;36.70;15.90;;;;;;;0.78;100.00;96265.67;269799;1272;22225;-88
2023/01/18 07:23:28;;;;;;;;;;;;;;;0.82;100.00;96271.77;272991;1275;24465;-88
2023/01/18 07:29:50;;;;;;;27.20;9.90;;;;;;;0.86;100.00;96263.31;272667;1272;23496;-88
2023/01/18 07:35:53;;;;;;;34.10;13.80;;;;;;;0.90;100.00;96257.11;271572;1272;22329;-88
2023/01/18 07:41:54;;;;;;;36.30;14.40;;;;;;;0.94;100.00;96259.75;270774;1272;22944;-88
2023/01/18 07:48:39;;;;;;;41.40;15.20;;;;;;;0.98;100.00;96262.60;271094;1269;22240;-87
2023/01/18 07:54:40;;;;;;;38.60;15.50;;;;;;;0.97;100.00;96259.38;270979;1272;22304;-89
2023/01/18 08:00:44;;;;;;;37.50;15.60;;;;;;;0.90;100.00;96263.03;269937;1272;22439;-87
2023/01/18 08:06:47;;;;;;;35.80;15.20;;;;;;;0.82;100.00;96260.52;272122;1272;22622;-87
2023/01/18 08:12:50;;;;;;;39.80;15.30;;;;;;;0.80;100.00;96251.14;271896;1272;22568;-87
2023/01/18 08:19:19;;;;;;;37.60;17.10;;;;;;;0.80;100.00;96242.44;270246;1272;22700;-87
2023/01/18 08:25:41;;;;;;;38.30;16.50;;;;;;;0.80;100.00;96248.43;271288;1272;23017;-88
2023/01/18 08:31:43;;;;;;;32.80;15.30;;;;;;;0.79;100.00;96264.67;271074;1273;23362;-87
2023/01/18 08:38:33;;;;;;;35.00;15.20;;;;;;;0.82;100.00;96286.85;272222;1275;22219;-87
2023/01/18 08:45:56;;;;;;;28.80;12.50;;;;;;;0.85;100.00;96293.94;271782;1273;22304;-87
2023/01/18 08:53:12;;;;;;;38.20;15.70;;;;;;;0.85;100.00;96302.86;273289;1274;22262;-87
2023/01/18 08:59:55;;;;;;;41.00;17.60;;;;;;;0.85;100.00;96298.02;273464;1274;22213;-87
2023/01/18 09:06:01;;;;;;;49.30;18.40;;;;;;;0.86;100.00;96298.95;273382;1272;22311;-87
2023/01/18 09:12:03;;;;;;;46.60;19.70;;;;;;;0.87;100.00;96299.64;273147;1274;22366;-88
2023/01/18 09:18:46;;;;;;;43.90;20.70;;;;;;;0.84;100.00;96296.32;273438;1272;22176;-88
2023/01/18 09:25:14;;;;;;;47.60;23.30;;;;;;;0.85;100.00;96284.77;273440;1272;23234;-87
2023/01/18 09:31:27;;;;;;;48.30;23.30;;;;;;;0.90;100.00;96307.89;273357;1275;22211;-87
2023/01/18 09:37:30;;;;;;;47.00;22.10;;;;;;;1.07;100.00;96324.69;271828;1264;22315;-89
2023/01/18 09:43:47;;;;;;;47.30;23.80;;;;;;;1.21;100.00;96326.52;271147;1264;22672;-89
2023/01/18 09:50:38;;;;;;;40.10;18.20;;;;;;;1.31;100.00;96336.52;271576;1272;22557;-88
2023/01/18 09:57:32;;;;;;;38.00;19.40;;;;;;;1.34;100.00;96357.23;271392;1271;22351;-87
2023/01/18 10:03:54;;;;;;;47.10;22.80;;;;;;;1.43;100.00;96373.07;269296;1272;22197;-87
2023/01/18 10:17:16;;;;;;;55.60;27.30;;;;;;;1.51;100.00;96373.65;271481;1272;23290;-89
2023/01/18 10:23:24;;;;;;;62.70;28.10;;;;;;;1.57;100.00;96378.29;271810;1272;23501;-88
2023/01/18 10:44:51;;;;;;;52.20;25.60;;;;;;;1.93;100.00;96414.49;272529;1284;23469;-87
2023/01/18 10:50:56;;;;;;;58.30;27.50;;;;;;;2.03;100.00;96422.69;271952;1272;22537;-86
2023/01/18 11:04:31;;;;;;;55.50;29.60;;;;;;;2.19;100.00;96437.77;272737;1272;23048;-87
2023/01/18 11:10:34;;;;;;;50.00;25.70;;;;;;;2.22;100.00;96446.35;270418;1272;22577;-87
2023/01/18 11:16:41;;;;;;;51.10;23.70;;;;;;;2.21;100.00;96453.05;270410;1271;22570;-87
2023/01/18 11:22:57;;;;;;;51.30;24.70;;;;;;;2.20;100.00;96466.02;269696;1272;22538;-88
2023/01/18 11:29:04;;;;;;;45.40;24.00;;;;;;;2.30;100.00;96475.14;269955;1272;22302;-87
2023/01/18 11:35:35;;;;;;;51.80;26.30;;;;;;;2.39;100.00;96486.58;271803;1268;22195;-87
2023/01/18 11:42:10;;;;;;;50.20;26.00;;;;;;;2.45;100.00;96494.23;272240;1268;22324;-88
2023/01/18 11:48:47;;;;;;;46.90;22.90;;;;;;;2.53;100.00;96503.05;272611;1272;22298;-88
2023/01/18 11:54:52;;;;;;;46.30;24.30;;;;;;;2.64;100.00;96509.56;273320;1275;22955;-88
2023/01/18 12:01:54;;;;;;;48.60;25.50;;;;;;;2.81;100.00;96514.37;273271;1279;22745;-87
2023/01/18 12:15:59;;;;;;;33.60;19.00;;;;;;;3.05;100.00;96551.16;271260;1273;22444;-87
2023/01/18 12:29:35;;;;;;;30.80;17.10;;;;;;;3.14;100.00;96585.86;269800;1261;22548;-87
2023/01/18 12:36:15;;;;;;;35.60;19.00;;;;;;;3.15;100.00;96597.98;269691;1272;23129;-88
2023/01/18 12:57:32;;;;;;;27.60;16.00;;;;;;;3.28;100.00;96636.63;270592;1272;22532;-87
2023/01/18 13:03:40;;;;;;;34.40;18.90;;;;;;;3.35;100.00;96655.11;269834;1272;22551;-88
2023/01/18 13:10:36;;;;;;;31.40;18.50;;;;;;;3.35;100.00;96676.13;268054;1256;22578;-90
2023/01/18 13:17:16;;;;;;;37.80;20.40;;;;;;;3.34;100.00;96697.59;268824;1272;23725;-90
2023/01/18 13:23:52;;;;;;;38.00;19.40;;;;;;;3.31;100.00;96722.91;272568;1271;22563;-90
2023/01/18 13:30:05;;;;;;;37.20;20.60;;;;;;;3.29;100.00;96741.46;271170;1274;23402;-90
2023/01/18 13:36:48;;;;;;;39.90;22.40;;;;;;;3.31;100.00;96758.77;272668;1276;22889;-90
2023/01/18 13:43:43;;;;;;;34.80;20.00;;;;;;;3.33;100.00;96781.42;269650;1267;22554;-90
2023/01/18 13:49:46;;;;;;;34.60;17.90;;;;;;;3.34;100.00;96792.86;269199;1272;22565;-89
2023/01/18 13:55:53;;;;;;;34.40;18.90;;;;;;;3.32;100.00;96811.00;269132;1272;23318;-89
2023/01/18 14:02:06;;;;;;;30.50;16.30;;;;;;;3.33;100.00;96820.51;269884;1272;22457;-88
2023/01/18 14:16:01;;;;;;;28.50;16.60;;;;;;;3.49;100.00;96849.03;271974;1273;23165;-89
2023/01/18 14:22:28;;;;;;;24.50;14.20;;;;;;;3.48;100.00;96873.28;270662;1272;23082;-89
2023/01/18 14:28:57;;;;;;;25.00;13.70;;;;;;;3.44;100.00;96882.15;273221;1280;22309;-90
2023/01/18 14:35:02;;;;;;;25.70;14.70;;;;;;;3.42;100.00;96880.05;270086;1275;22583;-90
2023/01/18 14:41:07;;;;;;;37.40;18.80;;;;;;;3.39;100.00;96894.18;268491;1275;22568;-89
2023/01/18 14:47:17;;;;;;;37.20;20.90;;;;;;;3.33;100.00;96909.21;269914;1273;23441;-89
2023/01/18 14:53:46;;;;;;;36.10;18.50;;;;;;;3.29;100.00;96918.46;270540;1272;22663;-90
2023/01/18 14:59:55;;;;;;;32.90;18.70;;;;;;;3.24;100.00;96936.27;268509;1272;22536;-91
2023/01/18 15:06:30;;;;;;;34.50;19.50;;;;;;;3.17;100.00;96952.91;272919;1275;22212;-90
2023/01/18 15:12:33;;;;;;;41.80;22.30;;;;;;;3.10;100.00;96971.95;270531;1272;22523;-90
2023/01/18 15:18:35;;;;;;;45.80;25.90;;;;;;;3.04;100.00;96982.33;271538;1272;22190;-90
2023/01/18 15:24:39;;;;;;;48.80;27.30;;;;;;;3.02;100.00;96995.36;271199;1271;22549;-88
2023/01/18 15:30:49;;;;;;;51.40;30.60;;;;;;;2.99;100.00;97007.30;268434;1274;22541;-91
2023/01/18 15:36:51;;;;;;;58.30;30.00;;;;;;;2.94;100.00;97013.43;269185;1272;24256;-89
2023/01/18 15:43:06;;;;;;;49.70;27.40;;;;;;;2.88;100.00;97026.73;271781;1274;22425;-91
2023/01/18 15:49:50;;;;;;;45.50;26.00;;;;;;;2.85;100.00;97034.04;272316;1272;22315;-91
2023/01/18 15:57:38;;;;;;;64.40;41.30;;;;;;;2.76;100.00;97037.42;273162;1271;22251;-91
2023/01/18 16:04:57;;;;;;;51.20;32.40;;;;;;;2.58;100.00;97047.87;272492;1275;22237;-90
2023/01/18 16:11:48;;;;;;;44.50;26.30;;;;;;;2.40;100.00;97051.70;272532;1275;23293;-90
2023/01/18 16:18:44;;;;;;;39.50;22.50;;;;;;;2.25;100.00;97067.48;271881;1275;22323;-90
2023/01/18 16:25:15;;;;;;;41.60;24.30;;;;;;;2.15;100.00;97072.90;270548;1276;22972;-90
2023/01/18 16:31:20;;;;;;;45.10;25.40;;;;;;;2.03;100.00;97096.33;271212;1274;22638;-91
2023/01/18 16:37:22;;;;;;;59.70;31.50;;;;;;;1.91;100.00;97118.91;269975;1272;22983;-90
2023/01/18 16:43:28;;;;;;;57.70;31.90;;;;;;;1.86;100.00;97135.63;270502;1278;22632;-90
2023/01/18 16:49:30;;;;;;;57.30;32.40;;;;;;;1.79;100.00;97148.70;271167;1266;23030;-90
2023/01/18 17:03:29;;;;;;;60.00;35.60;;;;;;;1.67;100.00;97171.63;271776;1273;22309;-90
2023/01/18 17:09:36;;;;;;;97.80;54.30;;;;;;;1.56;100.00;97180.70;272187;1273;22466;-91
2023/01/18 17:15:42;;;;;;;78.10;45.20;;;;;;;1.47;100.00;97186.46;270131;1275;22251;-90
2023/01/18 17:22:34;;;;;;;91.80;49.50;;;;;;;1.39;100.00;97192.50;273039;1275;22265;-90
2023/01/18 17:29:44;;;;;;;97.70;52.80;;;;;;;1.30;100.00;97205.50;268878;1278;5363052;-90
2023/01/18 17:36:29;;;;;;;89.20;47.80;;;;;;;1.14;100.00;97216.36;273113;1280;23557;-89
2023/01/18 17:43:13;;;;;;;76.80;41.50;;;;;;;0.94;100.00;97218.96;272981;1277;23185;-88
2023/01/18 17:50:17;;;;;;;27.30;15.70;;;;;;;0.90;100.00;97244.98;273014;1275;22215;-89
2023/01/18 17:57:00;;;;;;;21.50;10.00;;;;;;;0.99;100.00;97264.86;272543;1275;22342;-90
2023/01/18 18:03:47;;;;;;;14.30;6.70;;;;;;;1.14;100.00;97268.26;272697;1273;22339;-89
2023/01/18 18:10:40;;;;;;;10.10;5.40;;;;;;;1.31;100.00;97266.83;272758;1275;22221;-88
2023/01/18 18:17:45;;;;;;;12.40;6.80;;;;;;;1.47;100.00;97272.00;273071;1275;22262;-90
2023/01/18 18:31:59;;;;;;;11.30;6.30;;;;;;;1.58;100.00;97310.88;273152;1277;22370;-90
2023/01/18 18:39:00;;;;;;;10.50;5.80;;;;;;;1.60;100.00;97323.25;273069;1280;22242;-89
2023/01/18 18:45:43;;;;;;;11.60;6.60;;;;;;;1.57;100.00;97333.27;272676;1278;22232;-89
2023/01/18 18:52:39;;;;;;;13.50;7.90;;;;;;;1.52;100.00;97351.21;272501;1274;25390;-89
2023/01/18 18:59:23;;;;;;;16.00;8.20;;;;;;;1.49;100.00;97349.21;272134;1280;22246;-88
2023/01/18 19:06:05;;;;;;;11.00;6.60;;;;;;;1.44;100.00;97336.65;272102;1274;23521;-89
2023/01/18 19:12:07;;;;;;;17.60;8.30;;;;;;;1.40;100.00;97343.58;272140;1274;22634;-88
2023/01/18 19:18:10;;;;;;;16.40;8.10;;;;;;;1.32;100.00;97367.98;272295;1274;23210;-89
2023/01/18 19:24:12;;;;;;;16.20;8.90;;;;;;;1.24;100.00;97380.81;270346;1273;22356;-88
2023/01/18 19:30:54;;;;;;;17.10;9.10;;;;;;;1.19;100.00;97392.71;272148;1273;22209;-89
2023/01/18 19:38:26;;;;;;;16.70;8.60;;;;;;;1.17;100.00;97400.79;271699;1288;22692;-89
2023/01/18 19:45:10;;;;;;;14.60;6.70;;;;;;;1.17;100.00;97409.26;271381;1280;23597;-89
2023/01/18 19:52:00;;;;;;;16.00;6.60;;;;;;;1.19;100.00;97420.99;272706;1273;22757;-88
2023/01/18 19:59:03;;;;;;;14.90;7.20;;;;;;;1.15;100.00;97432.98;272878;1276;22334;-89
2023/01/18 20:06:28;;;;;;;14.50;7.50;;;;;;;1.06;100.00;97454.49;272975;1272;22834;-88
2023/01/18 20:13:52;;;;;;;14.30;7.10;;;;;;;0.97;100.00;97465.83;272828;1276;22214;-89
2023/01/18 20:22:03;;;;;;;14.60;6.90;;;;;;;0.97;100.00;97480.23;273002;1272;22363;-90
2023/01/18 20:28:47;;;;;;;13.00;6.40;;;;;;;1.06;100.00;97478.84;272871;1276;22241;-89
2023/01/18 20:36:04;;;;;;;10.00;4.90;;;;;;;1.10;100.00;97471.52;273106;1273;22186;-89
2023/01/18 20:43:28;;;;;;;10.90;5.40;;;;;;;1.10;100.00;97467.62;272981;1281;22686;-90
2023/01/18 20:49:29;;;;;;;10.00;6.00;;;;;;;1.13;100.00;97476.60;271627;1273;22586;-91
2023/01/18 20:56:13;;;;;;;13.30;6.40;;;;;;;1.16;100.00;97479.00;272621;1276;22241;-90
2023/01/18 21:02:57;;;;;;;15.60;7.60;;;;;;;1.16;100.00;97488.46;272708;1273;23016;-90
2023/01/18 21:09:34;;;;;;;26.20;11.10;;;;;;;1.15;100.00;97503.77;270212;1274;22813;-90
2023/01/18 21:23:44;;;;;;;24.90;11.20;;;;;;;1.28;100.00;97516.23;273044;1281;22668;-89
2023/01/18 21:30:09;;;;;;;23.30;9.60;;;;;;;1.27;100.00;97514.90;273376;1279;22726;-88
2023/01/18 21:36:57;;;;;;;19.30;7.70;;;;;;;1.30;100.00;97521.89;272801;1275;22210;-90
2023/01/18 21:58:51;;;;;;;17.90;9.20;;;;;;;1.49;100.00;97551.31;273038;1259;22272;-89
2023/01/18 22:05:08;;;;;;;20.30;9.70;;;;;;;1.47;100.00;97586.63;272796;1273;22210;-90
2023/01/18 22:11:51;;;;;;;22.50;10.80;;;;;;;1.31;100.00;97605.03;273139;1275;23324;-91
2023/01/18 22:18:14;;;;;;;19.70;10.30;;;;;;;0.98;100.00;97615.50;270818;1272;22553;-91
2023/01/18 22:24:16;;;;;;;18.10;10.10;;;;;;;0.78;100.00;97613.91;271949;1272;23031;-91
2023/01/18 22:37:24;;;;;;;30.60;13.50;;;;;;;0.56;100.00;97617.59;271415;1272;22565;-91
2023/01/18 22:43:29;;;;;;;24.00;10.60;;;;;;;0.49;100.00;97630.01;271579;1272;22324;-89
2023/01/18 22:49:31;;;;;;;28.00;13.10;;;;;;;0.40;100.00;97640.76;271144;1272;25405;-90
2023/01/18 22:55:54;;;;;;;35.60;13.20;;;;;;;0.31;100.00;97645.96;271184;1272;22401;-90
2023/01/18 23:02:37;;;;;;;29.60;15.60;;;;;;;0.25;100.00;97658.98;273405;1263;22231;-90
2023/01/18 23:10:20;;;;;;;26.60;12.00;;;;;;;0.17;100.00;97661.67;271792;1277;23676;-90
2023/01/18 23:23:39;;;;;;;33.20;15.80;;;;;;;0.05;100.00;97653.70;272046;1276;22362;-90
2023/01/18 23:30:05;;;;;;;32.90;15.90;;;;;;;-0.03;100.00;97669.77;271966;1276;22257;-89
2023/01/18 23:36:08;;;;;;;46.30;23.70;;;;;;;-0.08;100.00;97680.37;272524;1272;22850;-90
2023/01/18 23:56:20;;;;;;;57.20;30.30;;;;;;;-0.11;100.00;97666.23;273165;1272;23153;-90
